CheckWX is a tool to help pilots better visualize weather data.  It is not intended as a substitute for an official pre-flight weather briefing.

02:35:45 UTC

PAFR METAR
Bryant AAF Airport
Fort Richardson(Anchorage), Alaska, USA
Current

12 mins ago

PAFR 220224Z AUTO 00000KT 1 5/8SM PL BR OVC005 M09/M10 A2945 RMK AO2 VIS 1 5/8V2 1/2 SLP986 FZRANO $
Observed
Jan-22 @ 02:24 UTC
Visibility
1.63 SM
Flight Rules
IFR
Conditions
Mist
Cloud Levels
  • Overcast at 500' AGL
Temperature
-9°C / 16°F
Dewpoint
-10°C / 14°F
Humidity
93%
Altimeter
29.45" Hg
Pressure
997.32 hPa
Previous

28 mins ago

PAFR 220208Z AUTO 22003KT 4SM -PL BR OVC005 M09/M11 A2945 RMK AO2 SLP986 FZRANO $
Observed
Jan-22 @ 02:08 UTC
Wind
  • 220° at 3 KTS
Visibility
4 SM
Flight Rules
IFR
Conditions
Mist
Cloud Levels
  • Overcast at 500' AGL
Temperature
-9°C / 16°F
Dewpoint
-11°C / 12°F
Humidity
86%
Altimeter
29.45" Hg
Pressure
997.32 hPa
Previous

38 mins ago

PAFR 220158Z AUTO 22003KT 2SM -PL BR BKN004 OVC060 M09/M11 A2945 RMK AO2 VIS 1 3/8V2 SLP985 P0000 T10931107 FZRANO $
Observed
Jan-22 @ 01:58 UTC
Wind
  • 220° at 3 KTS
Visibility
2 SM
Flight Rules
LIFR
Conditions
Mist
Cloud Levels
  • Broken at 400' AGL
  • Overcast at 6,000' AGL
Temperature
-9°C / 16°F
Dewpoint
-11°C / 12°F
Humidity
86%
Altimeter
29.45" Hg
Pressure
997.32 hPa
Current Rain
0.01"